Terminal Aerodrome Forecast
Issued by NWS

Home | Current Version | Previous Version | Text Only | Print | Product List | Glossary On
Versions: 1 2 3 4 5 6 7 8 9 10 11 12 13 14 15 16 17 18 19 20
708
FTUS41 KCAR 101317 AAA
TAFPQI
TAF AMD
KPQI 101317Z 1013/1112 VRB03KT P6SM VCSH OVC009
      TEMPO 1013/1015 6SM -SHSN
     FM101500 23004KT P6SM BKN030
     FM102100 22004KT P6SM OVC022
     FM110000 VRB03KT P6SM VCSH OVC018
     FM110600 32004KT P6SM BKN022
     FM111000 32006KT P6SM BKN030=

USA.gov is the U.S. government's official web portal to all federal, state and local government web resources and services.